createdAt,value
2022-12-11T00:01:14.608Z,13.70
2022-12-11T00:03:44.464Z,14.17
2022-12-11T00:06:15.600Z,13.87
2022-12-11T00:08:43.935Z,12.63
2022-12-11T00:11:14.895Z,13.47
2022-12-11T00:13:43.984Z,13.63
2022-12-11T00:16:12.374Z,12.97
2022-12-11T00:18:41.520Z,13.50
2022-12-11T00:21:14.683Z,13.23
2022-12-11T00:23:43.374Z,13.47
2022-12-11T00:26:15.406Z,13.40
2022-12-11T00:28:45.108Z,13.37
2022-12-11T00:31:17.826Z,12.77
2022-12-11T00:33:48.988Z,12.97
2022-12-11T00:36:20.435Z,13.77
2022-12-11T00:38:49.861Z,12.60
2022-12-11T00:41:18.764Z,12.57
2022-12-11T00:43:47.468Z,12.93
2022-12-11T00:46:16.462Z,12.23
2022-12-11T00:48:46.184Z,12.03
2022-12-11T00:51:14.428Z,12.23
2022-12-11T00:53:44.584Z,12.87
2022-12-11T00:56:14.850Z,13.40
2022-12-11T00:58:43.764Z,13.23
2022-12-11T01:01:17.902Z,13.00
2022-12-11T01:03:46.509Z,12.37
2022-12-11T01:06:16.435Z,12.00
2022-12-11T01:08:47.325Z,13.20
2022-12-11T01:11:16.690Z,12.50
2022-12-11T01:13:45.392Z,11.80
2022-12-11T01:16:16.034Z,11.57
2022-12-11T01:18:44.747Z,10.80
2022-12-11T01:21:14.474Z,11.90
2022-12-11T01:23:42.927Z,10.70
2022-12-11T01:26:15.557Z,11.30
2022-12-11T01:28:44.229Z,11.37
2022-12-11T01:31:14.291Z,11.73
2022-12-11T01:33:42.987Z,11.70
2022-12-11T01:36:13.940Z,11.37
2022-12-11T01:38:42.810Z,10.97
2022-12-11T01:41:12.800Z,10.23
2022-12-11T01:44:01.759Z,10.47
2022-12-11T01:46:31.534Z,11.97
2022-12-11T01:49:01.938Z,9.93
2022-12-11T01:51:32.179Z,10.20
2022-12-11T01:54:03.683Z,10.37
2022-12-11T01:56:38.744Z,11.53
2022-12-11T01:59:09.538Z,11.10
2022-12-11T02:01:42.438Z,10.90
2022-12-11T02:04:12.400Z,10.63
2022-12-11T02:06:43.749Z,10.83
2022-12-11T02:09:15.302Z,12.90
2022-12-11T02:11:57.052Z,10.97
2022-12-11T02:14:33.688Z,12.07
2022-12-11T02:17:08.111Z,11.27
2022-12-11T02:19:49.526Z,12.10
2022-12-11T02:22:28.653Z,11.33
2022-12-11T02:25:10.136Z,10.47
2022-12-11T02:27:45.217Z,11.40
2022-12-11T02:30:16.076Z,11.70
2022-12-11T02:32:48.595Z,11.67
2022-12-11T02:35:22.520Z,10.80
2022-12-11T02:37:56.437Z,11.37
2022-12-11T02:40:31.035Z,11.30
2022-12-11T02:43:02.874Z,10.47
2022-12-11T02:45:34.946Z,11.07
2022-12-11T02:48:06.851Z,10.13
2022-12-11T02:50:40.227Z,9.73
2022-12-11T02:53:11.324Z,10.07
2022-12-11T02:55:41.616Z,10.03
2022-12-11T02:58:15.888Z,10.73
2022-12-11T03:00:46.675Z,9.60
2022-12-11T03:03:15.504Z,9.40
2022-12-11T03:05:46.253Z,9.47
2022-12-11T03:08:18.661Z,10.47
2022-12-11T03:10:47.291Z,9.87
2022-12-11T03:13:21.271Z,9.87
2022-12-11T03:16:09.337Z,10.37
2022-12-11T03:18:53.647Z,10.40
2022-12-11T03:21:36.176Z,10.10
2022-12-11T03:24:10.057Z,10.53
2022-12-11T03:26:43.709Z,9.47
2022-12-11T03:29:19.163Z,9.63
2022-12-11T03:31:54.792Z,9.33
2022-12-11T03:34:29.119Z,10.17
2022-12-11T03:37:00.979Z,10.03
2022-12-11T03:39:33.131Z,9.20
2022-12-11T03:42:04.038Z,9.90
2022-12-11T03:44:34.522Z,9.30
2022-12-11T03:47:08.026Z,9.17
2022-12-11T03:49:41.063Z,10.00
2022-12-11T03:52:12.484Z,9.20
2022-12-11T03:54:43.082Z,9.20
2022-12-11T03:57:16.215Z,9.57
2022-12-11T03:59:44.851Z,9.03
2022-12-11T04:02:14.527Z,9.87
2022-12-11T04:04:44.187Z,9.67
2022-12-11T04:07:12.647Z,10.00
2022-12-11T04:09:40.955Z,8.77
2022-12-11T04:12:09.320Z,10.10
2022-12-11T04:14:55.142Z,9.40
2022-12-11T04:17:42.400Z,9.60
2022-12-11T04:20:44.320Z,8.80
2022-12-11T04:23:32.530Z,9.03
2022-12-11T04:26:06.089Z,9.00
2022-12-11T04:28:34.926Z,9.20
2022-12-11T04:31:03.541Z,9.60
2022-12-11T04:33:33.451Z,8.80
2022-12-11T04:36:02.116Z,8.60
2022-12-11T04:38:30.468Z,9.00
2022-12-11T04:41:00.385Z,8.90
2022-12-11T04:43:28.738Z,8.43
2022-12-11T04:46:02.813Z,9.13
2022-12-11T04:48:31.132Z,8.40
2022-12-11T04:51:00.893Z,7.63
2022-12-11T04:53:30.770Z,8.37
2022-12-11T04:55:59.360Z,8.27
2022-12-11T04:58:27.755Z,8.23
2022-12-11T05:00:56.096Z,8.57
2022-12-11T05:03:24.549Z,7.70
2022-12-11T05:05:54.705Z,7.93
2022-12-11T05:08:24.513Z,8.20
2022-12-11T05:10:57.465Z,7.97
2022-12-11T05:13:25.889Z,7.67
2022-12-11T05:15:54.262Z,7.93
2022-12-11T05:18:22.835Z,7.60
2022-12-11T05:20:56.930Z,8.13
2022-12-11T05:23:27.273Z,7.60
2022-12-11T05:25:57.291Z,7.20
2022-12-11T05:28:26.889Z,7.93
2022-12-11T05:30:59.931Z,7.57
2022-12-11T05:33:28.460Z,7.97
2022-12-11T05:35:56.929Z,6.80
2022-12-11T05:38:26.893Z,7.77
2022-12-11T05:40:59.416Z,7.33
2022-12-11T05:43:29.367Z,8.20
2022-12-11T05:46:05.478Z,8.70
2022-12-11T05:48:33.851Z,7.57
2022-12-11T05:51:03.948Z,7.13
2022-12-11T05:53:34.282Z,7.10
2022-12-11T05:56:03.848Z,7.37
2022-12-11T05:58:33.136Z,6.57
2022-12-11T06:01:01.993Z,7.50
2022-12-11T06:03:30.345Z,7.67
2022-12-11T06:05:58.775Z,7.20
2022-12-11T06:08:27.243Z,6.67
2022-12-11T06:10:56.983Z,7.70
2022-12-11T06:13:25.630Z,7.47
2022-12-11T06:15:54.299Z,8.00
2022-12-11T06:18:22.923Z,9.83
2022-12-11T06:20:51.207Z,6.97
2022-12-11T06:23:19.516Z,7.33
2022-12-11T06:25:47.876Z,7.37
2022-12-11T06:28:17.633Z,6.27
2022-12-11T06:30:46.000Z,7.50
2022-12-11T06:33:14.606Z,7.20
2022-12-11T06:35:42.962Z,7.37
2022-12-11T06:38:11.546Z,7.63
2022-12-11T06:40:39.907Z,11.23
2022-12-11T06:43:08.368Z,12.87
2022-12-11T06:45:38.793Z,12.33
2022-12-11T06:48:07.559Z,11.30
2022-12-11T06:50:35.891Z,11.03
2022-12-11T06:53:04.206Z,9.67
2022-12-11T06:55:35.571Z,9.80
2022-12-11T06:58:04.108Z,9.03
2022-12-11T07:00:32.896Z,8.57
2022-12-11T07:03:02.534Z,11.03
2022-12-11T07:05:31.868Z,10.37
2022-12-11T07:08:00.295Z,12.67
2022-12-11T07:10:28.792Z,10.10
2022-12-11T07:12:57.585Z,11.90
2022-12-11T07:15:25.871Z,13.37
2022-12-11T07:17:54.549Z,14.97
2022-12-11T07:20:24.325Z,9.67
2022-12-11T07:22:52.775Z,9.30
2022-12-11T07:25:21.195Z,10.57
2022-12-11T07:27:49.563Z,10.13
2022-12-11T07:30:18.020Z,10.60
2022-12-11T07:32:46.483Z,8.87
2022-12-11T07:35:14.927Z,8.90
2022-12-11T07:37:45.895Z,8.10
2022-12-11T07:40:15.000Z,6.73
2022-12-11T07:42:46.286Z,7.93
2022-12-11T07:45:15.356Z,8.87
2022-12-11T07:47:43.755Z,9.43
2022-12-11T07:50:12.173Z,8.70
2022-12-11T07:52:40.822Z,9.10
2022-12-11T07:55:11.656Z,14.60
2022-12-11T07:57:40.274Z,9.40
2022-12-11T08:00:10.521Z,12.00
2022-12-11T08:02:39.237Z,11.00
2022-12-11T08:05:09.179Z,13.20
2022-12-11T08:07:37.651Z,9.73
2022-12-11T08:10:06.708Z,12.83
2022-12-11T08:12:39.700Z,11.17
2022-12-11T08:15:09.792Z,10.50
2022-12-11T08:17:40.139Z,10.10
2022-12-11T08:20:09.595Z,9.40
2022-12-11T08:22:38.132Z,11.83
2022-12-11T08:25:07.984Z,10.13
2022-12-11T08:27:36.498Z,10.43
2022-12-11T08:30:07.484Z,10.07
2022-12-11T08:32:36.451Z,9.07
2022-12-11T08:35:05.332Z,7.33
2022-12-11T08:37:34.963Z,6.53
2022-12-11T08:40:04.025Z,6.57
2022-12-11T08:42:32.341Z,6.57
2022-12-11T08:45:00.764Z,7.10
2022-12-11T08:47:30.483Z,7.43
2022-12-11T08:49:58.827Z,7.30
2022-12-11T08:52:27.227Z,9.63
2022-12-11T08:54:55.552Z,8.40
2022-12-11T08:57:23.930Z,10.53
2022-12-11T08:59:52.311Z,8.93
2022-12-11T09:02:20.720Z,10.90
2022-12-11T09:04:50.557Z,45.57
2022-12-11T09:07:18.951Z,40.83
2022-12-11T09:09:47.392Z,18.83
2022-12-11T09:12:15.781Z,15.73
2022-12-11T09:14:44.126Z,9.90
2022-12-11T09:17:18.536Z,8.50
2022-12-11T09:19:47.041Z,8.37
2022-12-11T09:22:16.749Z,9.13
2022-12-11T09:24:46.288Z,6.60
2022-12-11T09:27:14.811Z,7.53
2022-12-11T09:29:43.388Z,6.67
2022-12-11T09:32:12.291Z,7.83
2022-12-11T09:34:40.587Z,7.00
2022-12-11T09:37:08.984Z,6.33
2022-12-11T09:39:38.740Z,7.70
2022-12-11T09:42:14.611Z,7.07
2022-12-11T09:44:46.973Z,7.43
2022-12-11T09:47:24.935Z,7.47
2022-12-11T09:49:59.897Z,10.00
2022-12-11T09:52:35.807Z,8.13
2022-12-11T09:55:14.516Z,6.53
2022-12-11T09:57:51.844Z,6.20
2022-12-11T10:00:28.120Z,6.37
2022-12-11T10:03:41.261Z,6.73
2022-12-11T10:06:16.117Z,6.53
2022-12-11T10:08:52.713Z,7.07
2022-12-11T10:11:40.054Z,7.67
2022-12-11T10:14:17.280Z,10.57
2022-12-11T10:16:48.181Z,16.17
2022-12-11T10:19:20.513Z,19.80
2022-12-11T10:21:50.256Z,15.57
2022-12-11T10:24:48.866Z,13.80
2022-12-11T10:27:21.236Z,11.20
2022-12-11T10:29:55.145Z,10.97
2022-12-11T10:32:25.727Z,9.70
2022-12-11T10:35:00.376Z,8.80
2022-12-11T10:37:28.866Z,8.77
2022-12-11T10:39:57.244Z,8.20
2022-12-11T10:42:26.988Z,8.00
2022-12-11T10:45:00.481Z,7.80
2022-12-11T10:47:30.032Z,9.87
2022-12-11T10:50:01.943Z,9.87
2022-12-11T10:52:34.670Z,8.17
2022-12-11T10:55:05.716Z,9.00
2022-12-11T10:57:39.552Z,8.43
2022-12-11T11:00:10.422Z,8.33
2022-12-11T11:02:40.552Z,7.73
2022-12-11T11:05:18.291Z,8.23
2022-12-11T11:07:46.703Z,9.33
2022-12-11T11:10:17.807Z,8.73
2022-12-11T11:12:49.592Z,7.83
2022-12-11T11:15:20.797Z,7.90
2022-12-11T11:17:55.380Z,8.57
2022-12-11T11:20:26.570Z,7.70
2022-12-11T11:22:57.853Z,7.07
2022-12-11T11:25:28.176Z,7.80
2022-12-11T11:28:01.296Z,7.40
2022-12-11T11:30:32.234Z,7.07
2022-12-11T11:33:04.630Z,6.80
2022-12-11T11:35:34.067Z,6.70
2022-12-11T11:38:10.897Z,6.80
2022-12-11T11:40:45.651Z,7.57
2022-12-11T11:43:22.606Z,7.97
2022-12-11T11:45:58.737Z,8.23
2022-12-11T11:48:36.173Z,7.23
2022-12-11T11:51:15.027Z,6.50
2022-12-11T11:53:48.270Z,6.73
2022-12-11T11:56:22.421Z,6.80
2022-12-11T11:59:04.069Z,5.80
2022-12-11T12:01:32.926Z,5.73
2022-12-11T12:04:03.872Z,6.57
2022-12-11T12:06:50.471Z,6.70
2022-12-11T12:09:32.382Z,5.90
2022-12-11T12:12:22.793Z,6.20
2022-12-11T12:15:18.291Z,6.50
2022-12-11T12:17:56.179Z,5.67
2022-12-11T12:20:44.372Z,5.73
2022-12-11T12:23:39.719Z,5.20
2022-12-11T12:26:16.296Z,4.97
2022-12-11T12:28:53.920Z,5.77
2022-12-11T12:31:39.215Z,5.43
2022-12-11T12:34:22.836Z,4.60
2022-12-11T12:37:01.091Z,4.70
2022-12-11T12:39:35.827Z,5.10
2022-12-11T12:42:11.631Z,4.57
2022-12-11T12:44:51.248Z,4.67
2022-12-11T12:47:23.230Z,4.57
2022-12-11T12:49:54.218Z,4.57
2022-12-11T12:52:27.356Z,5.73
2022-12-11T12:55:18.855Z,5.10
2022-12-11T12:57:51.252Z,5.67
2022-12-11T13:00:31.622Z,5.23
2022-12-11T13:03:03.804Z,5.40
2022-12-11T13:05:35.531Z,5.27
2022-12-11T13:08:06.128Z,4.93
2022-12-11T13:10:37.051Z,5.53
2022-12-11T13:13:26.320Z,5.77
2022-12-11T13:15:54.718Z,5.13
2022-12-11T13:18:36.278Z,5.50
2022-12-11T13:21:25.650Z,4.73
2022-12-11T13:23:54.228Z,4.50
2022-12-11T13:26:30.633Z,5.03
2022-12-11T13:28:59.647Z,4.93
2022-12-11T13:31:35.031Z,4.87
2022-12-11T13:34:18.474Z,5.90
2022-12-11T13:36:50.180Z,5.63
2022-12-11T13:39:21.292Z,5.30
2022-12-11T13:41:53.620Z,5.13
2022-12-11T13:44:27.063Z,5.90
2022-12-11T13:46:58.269Z,6.43
2022-12-11T13:49:33.485Z,5.53
2022-12-11T13:52:02.927Z,5.73
2022-12-11T13:54:33.423Z,4.23
2022-12-11T13:57:05.431Z,5.50
2022-12-11T13:59:36.950Z,7.53
2022-12-11T14:02:14.586Z,6.40
2022-12-11T14:04:44.712Z,5.77
2022-12-11T14:07:13.527Z,6.03
2022-12-11T14:09:45.460Z,6.27
2022-12-11T14:12:19.086Z,6.90
2022-12-11T14:14:51.442Z,8.47
2022-12-11T14:17:27.814Z,7.37
2022-12-11T14:20:00.335Z,10.37
2022-12-11T14:22:30.444Z,9.73
2022-12-11T14:25:00.919Z,8.27
2022-12-11T14:27:29.346Z,11.43
2022-12-11T14:29:57.779Z,9.60
2022-12-11T14:32:34.787Z,8.10
2022-12-11T14:35:09.197Z,8.23
2022-12-11T14:37:39.656Z,6.80
2022-12-11T14:40:11.510Z,7.20
2022-12-11T14:42:45.205Z,6.33
2022-12-11T14:45:21.793Z,7.07
2022-12-11T14:47:51.835Z,6.50
2022-12-11T14:50:27.048Z,6.73
2022-12-11T14:53:00.991Z,7.17
2022-12-11T14:55:31.734Z,6.93
2022-12-11T14:58:03.765Z,7.63
2022-12-11T15:00:35.820Z,7.07
2022-12-11T15:03:07.227Z,6.07
2022-12-11T15:05:40.945Z,5.03
2022-12-11T15:08:24.790Z,4.57
2022-12-11T15:11:05.659Z,4.50
2022-12-11T15:13:36.301Z,3.33
2022-12-11T15:16:07.680Z,3.73
2022-12-11T15:18:39.204Z,3.70
2022-12-11T15:21:11.995Z,5.10
2022-12-11T15:23:51.438Z,4.10
2022-12-11T15:26:20.536Z,3.30
2022-12-11T15:28:48.920Z,3.00
2022-12-11T15:31:27.783Z,3.90
2022-12-11T15:33:56.173Z,3.70
2022-12-11T15:36:31.378Z,3.67
2022-12-11T15:38:59.791Z,3.57
2022-12-11T15:41:33.095Z,4.00
2022-12-11T15:44:03.589Z,3.43
2022-12-11T15:46:37.539Z,3.83
2022-12-11T15:49:13.633Z,4.00
2022-12-11T15:51:43.643Z,4.43
2022-12-11T15:54:12.201Z,4.33
2022-12-11T15:56:40.684Z,3.53
2022-12-11T15:59:09.223Z,4.07
2022-12-11T16:01:37.644Z,4.20
2022-12-11T16:04:06.214Z,5.17
2022-12-11T16:06:35.201Z,5.50
2022-12-11T16:09:05.711Z,5.13
2022-12-11T16:11:34.012Z,5.13
2022-12-11T16:14:04.342Z,5.07
2022-12-11T16:16:33.374Z,5.80
2022-12-11T16:19:01.928Z,4.93
2022-12-11T16:21:30.347Z,4.73
2022-12-11T16:23:58.716Z,4.60
2022-12-11T16:26:28.483Z,3.93
2022-12-11T16:28:56.984Z,5.10
2022-12-11T16:31:25.327Z,5.57
2022-12-11T16:33:53.747Z,5.10
2022-12-11T16:36:22.143Z,4.37
2022-12-11T16:38:53.905Z,5.20
2022-12-11T16:41:23.811Z,4.63
2022-12-11T16:43:55.322Z,4.63
2022-12-11T16:46:24.959Z,4.17
2022-12-11T16:48:53.393Z,3.73
2022-12-11T16:51:21.760Z,4.00
2022-12-11T16:53:50.358Z,4.13
2022-12-11T16:56:18.777Z,4.33
2022-12-11T16:58:48.224Z,4.80
2022-12-11T17:01:18.135Z,4.20
2022-12-11T17:03:46.728Z,5.00
2022-12-11T17:06:18.049Z,5.63
2022-12-11T17:08:47.372Z,5.37
2022-12-11T17:11:18.488Z,7.27
2022-12-11T17:13:47.210Z,6.47
2022-12-11T17:16:18.160Z,7.00
2022-12-11T17:18:46.671Z,6.70
2022-12-11T17:21:17.507Z,6.87
2022-12-11T17:23:46.592Z,7.03
2022-12-11T17:26:15.527Z,7.27
2022-12-11T17:28:44.714Z,7.20
2022-12-11T17:31:16.786Z,8.83
2022-12-11T17:33:47.420Z,7.17
2022-12-11T17:36:17.777Z,7.87
2022-12-11T17:38:46.705Z,6.70
2022-12-11T17:41:20.410Z,7.30
2022-12-11T17:43:49.987Z,7.33
2022-12-11T17:46:19.225Z,7.47
2022-12-11T17:48:49.596Z,8.43
2022-12-11T17:51:23.836Z,8.73
2022-12-11T17:53:52.894Z,7.10
2022-12-11T17:56:21.311Z,10.87
2022-12-11T17:58:49.674Z,10.97
2022-12-11T18:01:18.267Z,10.23
2022-12-11T18:03:48.284Z,10.13
2022-12-11T18:06:17.759Z,8.93
2022-12-11T18:08:46.373Z,8.30
2022-12-11T18:11:22.950Z,7.23
2022-12-11T18:13:52.760Z,7.77
2022-12-11T18:16:24.460Z,7.43
2022-12-11T18:18:54.909Z,7.17
2022-12-11T18:21:25.831Z,7.23
2022-12-11T18:23:54.412Z,7.47
2022-12-11T18:26:23.462Z,8.03
2022-12-11T18:28:52.990Z,8.43
2022-12-11T18:31:22.480Z,8.87
2022-12-11T18:33:51.252Z,8.63
2022-12-11T18:36:22.679Z,9.60
2022-12-11T18:38:51.100Z,16.47
2022-12-11T18:41:20.988Z,14.00
2022-12-11T18:43:49.434Z,12.33
2022-12-11T18:46:19.994Z,11.27
2022-12-11T18:48:49.109Z,9.87
2022-12-11T18:51:22.613Z,8.60
2022-12-11T18:53:51.077Z,8.07
2022-12-11T18:56:21.240Z,8.60
2022-12-11T18:58:49.893Z,9.37
2022-12-11T19:01:20.257Z,8.87
2022-12-11T19:03:48.887Z,8.67
2022-12-11T19:06:21.103Z,10.50
2022-12-11T19:08:49.504Z,9.73
2022-12-11T19:11:19.219Z,8.80
2022-12-11T19:13:48.392Z,8.30
2022-12-11T19:16:18.317Z,7.93
2022-12-11T19:18:47.008Z,7.13
2022-12-11T19:21:17.615Z,6.57
2022-12-11T19:23:47.635Z,7.13
2022-12-11T19:26:18.846Z,7.40
2022-12-11T19:28:48.318Z,8.60
2022-12-11T19:31:18.861Z,8.93
2022-12-11T19:33:47.355Z,18.97
2022-12-11T19:36:18.138Z,8.73
2022-12-11T19:38:47.883Z,8.67
2022-12-11T19:41:19.819Z,7.93
2022-12-11T19:43:48.413Z,12.60
2022-12-11T19:46:18.205Z,8.80
2022-12-11T19:48:49.088Z,7.97
2022-12-11T19:51:19.359Z,8.30
2022-12-11T19:53:49.984Z,7.47
2022-12-11T19:56:19.775Z,7.37
2022-12-11T19:58:49.935Z,7.50
2022-12-11T20:01:24.960Z,9.77
2022-12-11T20:03:53.719Z,8.60
2022-12-11T20:06:22.725Z,8.60
2022-12-11T20:08:52.442Z,8.57
2022-12-11T20:11:20.944Z,8.07
2022-12-11T20:13:50.088Z,8.47
2022-12-11T20:16:39.214Z,8.50
2022-12-11T20:19:08.692Z,8.20
2022-12-11T20:21:37.103Z,8.80
2022-12-11T20:24:07.667Z,6.97
2022-12-11T20:26:36.992Z,6.00
2022-12-11T20:29:08.353Z,6.00
2022-12-11T20:31:37.878Z,6.00
2022-12-11T20:34:07.199Z,5.83
2022-12-11T20:36:35.899Z,5.53
2022-12-11T20:39:06.257Z,5.67
2022-12-11T20:41:34.624Z,5.60
2022-12-11T20:44:02.939Z,5.07
2022-12-11T20:46:31.294Z,4.90
2022-12-11T20:48:59.756Z,4.70
2022-12-11T20:51:29.172Z,4.30
2022-12-11T20:53:59.508Z,5.10
2022-12-11T20:56:31.583Z,5.10
2022-12-11T20:59:00.895Z,4.83
2022-12-11T21:01:32.373Z,4.17
2022-12-11T21:04:01.362Z,4.83
2022-12-11T21:06:32.650Z,4.37
2022-12-11T21:09:05.624Z,4.57
2022-12-11T21:11:35.557Z,4.07
2022-12-11T21:14:03.890Z,4.70
2022-12-11T21:16:32.394Z,4.70
2022-12-11T21:19:01.622Z,5.20
2022-12-11T21:21:32.268Z,5.30
2022-12-11T21:24:00.612Z,5.20
2022-12-11T21:26:28.995Z,5.23
2022-12-11T21:28:58.656Z,6.13
2022-12-11T21:31:27.299Z,6.70
2022-12-11T21:33:55.908Z,4.50
2022-12-11T21:36:24.312Z,4.10
2022-12-11T21:38:52.759Z,4.43
2022-12-11T21:41:22.930Z,4.37
2022-12-11T21:46:43.386Z,6.57
2022-12-11T21:49:11.995Z,5.83
2022-12-11T21:51:46.727Z,5.37
2022-12-11T21:54:18.867Z,6.47
2022-12-11T21:56:47.979Z,7.10
2022-12-11T21:59:16.899Z,8.13
2022-12-11T22:01:47.460Z,7.07
2022-12-11T22:04:16.545Z,8.07
2022-12-11T22:06:47.054Z,7.17
2022-12-11T22:09:17.887Z,7.97
2022-12-11T22:11:47.640Z,4.10
2022-12-11T22:14:18.010Z,4.23
2022-12-11T22:16:47.892Z,3.70
2022-12-11T22:19:16.264Z,3.63
2022-12-11T22:21:44.673Z,3.63
2022-12-11T22:24:14.066Z,4.50
2022-12-11T22:26:42.393Z,4.20
2022-12-11T22:29:10.843Z,4.43
2022-12-11T22:31:39.191Z,5.23
2022-12-11T22:34:09.120Z,4.23
2022-12-11T22:36:38.435Z,4.83
2022-12-11T22:39:06.800Z,4.10
2022-12-11T22:41:38.315Z,4.00
2022-12-11T22:44:06.616Z,6.67
2022-12-11T22:46:34.962Z,5.43
2022-12-11T22:49:04.205Z,5.83
2022-12-11T22:51:34.678Z,6.13
2022-12-11T22:54:03.282Z,4.80
2022-12-11T22:56:31.714Z,4.70
2022-12-11T22:59:01.019Z,4.50
2022-12-11T23:01:29.451Z,4.70
2022-12-11T23:03:57.716Z,4.37
2022-12-11T23:06:26.529Z,4.27
2022-12-11T23:08:59.262Z,4.70
2022-12-11T23:11:30.663Z,4.47
2022-12-11T23:13:59.182Z,4.43
2022-12-11T23:16:28.837Z,3.97
2022-12-11T23:18:58.130Z,4.83
2022-12-11T23:21:28.031Z,4.43
2022-12-11T23:23:58.195Z,4.23
2022-12-11T23:26:28.272Z,3.83
2022-12-11T23:28:58.051Z,4.23
2022-12-11T23:31:27.904Z,4.13
2022-12-11T23:33:56.261Z,4.30
2022-12-11T23:36:26.335Z,3.90
2022-12-11T23:38:55.362Z,4.30
2022-12-11T23:41:25.514Z,4.77
2022-12-11T23:43:53.842Z,4.37
2022-12-11T23:46:24.474Z,3.77
2022-12-11T23:48:53.553Z,4.67
2022-12-11T23:51:23.551Z,4.37
2022-12-11T23:53:52.618Z,3.90
2022-12-11T23:56:23.142Z,3.50
2022-12-11T23:58:52.899Z,3.20
